sensor_id;sensor_type;location;lat;lon;timestamp;pressure;altitude;pressure_sealevel;temperature;humidity
76297;BME280;65104;52.994;6.552;2023-04-24T00:00:56;99657.78;;;9.87;100.00
76297;BME280;65104;52.994;6.552;2023-04-24T00:03:24;99644.97;;;9.81;100.00
76297;BME280;65104;52.994;6.552;2023-04-24T00:05:51;99652.66;;;9.79;100.00
76297;BME280;65104;52.994;6.552;2023-04-24T00:08:17;99648.34;;;9.75;100.00
76297;BME280;65104;52.994;6.552;2023-04-24T00:10:43;99647.50;;;9.73;100.00
76297;BME280;65104;52.994;6.552;2023-04-24T00:13:08;99640.66;;;9.75;100.00
76297;BME280;65104;52.994;6.552;2023-04-24T00:15:34;99637.22;;;9.69;100.00
76297;BME280;65104;52.994;6.552;2023-04-24T00:17:59;99641.53;;;9.71;100.00
76297;BME280;65104;52.994;6.552;2023-04-24T00:20:26;99639.78;;;9.64;100.00
76297;BME280;65104;52.994;6.552;2023-04-24T00:22:53;99636.34;;;9.59;100.00
76297;BME280;65104;52.994;6.552;2023-04-24T00:25:18;99637.19;;;9.58;100.00
76297;BME280;65104;52.994;6.552;2023-04-24T00:27:44;99634.66;;;9.57;100.00
76297;BME280;65104;52.994;6.552;2023-04-24T00:30:09;99633.75;;;9.52;100.00
76297;BME280;65104;52.994;6.552;2023-04-24T00:32:35;99639.75;;;9.52;100.00
76297;BME280;65104;52.994;6.552;2023-04-24T00:35:00;99632.91;;;9.48;100.00
76297;BME280;65104;52.994;6.552;2023-04-24T00:37:25;99637.19;;;9.55;100.00
76297;BME280;65104;52.994;6.552;2023-04-24T00:39:51;99624.34;;;9.51;100.00
76297;BME280;65104;52.994;6.552;2023-04-24T00:42:16;99627.78;;;9.48;100.00
76297;BME280;65104;52.994;6.552;2023-04-24T00:44:42;99624.34;;;9.46;100.00
76297;BME280;65104;52.994;6.552;2023-04-24T00:47:07;99626.91;;;9.49;100.00
76297;BME280;65104;52.994;6.552;2023-04-24T00:49:32;99630.31;;;9.44;100.00
76297;BME280;65104;52.994;6.552;2023-04-24T00:51:58;99625.22;;;9.47;100.00
76297;BME280;65104;52.994;6.552;2023-04-24T00:54:24;99624.34;;;9.45;100.00
76297;BME280;65104;52.994;6.552;2023-04-24T00:56:50;99614.06;;;9.35;100.00
76297;BME280;65104;52.994;6.552;2023-04-24T00:59:16;99619.19;;;9.37;100.00
76297;BME280;65104;52.994;6.552;2023-04-24T01:01:43;99621.75;;;9.41;100.00
76297;BME280;65104;52.994;6.552;2023-04-24T01:04:11;99626.03;;;9.36;100.00
76297;BME280;65104;52.994;6.552;2023-04-24T01:06:38;99619.19;;;9.37;100.00
76297;BME280;65104;52.994;6.552;2023-04-24T01:09:04;99623.47;;;9.43;100.00
76297;BME280;65104;52.994;6.552;2023-04-24T01:11:30;99626.03;;;9.43;100.00
76297;BME280;65104;52.994;6.552;2023-04-24T01:13:56;99620.09;;;9.47;100.00
76297;BME280;65104;52.994;6.552;2023-04-24T01:16:22;99609.81;;;9.42;100.00
76297;BME280;65104;52.994;6.552;2023-04-24T01:18:47;99620.94;;;9.47;100.00
76297;BME280;65104;52.994;6.552;2023-04-24T01:21:14;99620.03;;;9.40;100.00
76297;BME280;65104;52.994;6.552;2023-04-24T01:23:43;99616.66;;;9.38;100.00
76297;BME280;65104;52.994;6.552;2023-04-24T01:26:08;99620.06;;;9.45;100.00
76297;BME280;65104;52.994;6.552;2023-04-24T01:28:34;99619.22;;;9.45;100.00
76297;BME280;65104;52.994;6.552;2023-04-24T01:30:59;99620.94;;;9.46;100.00
76297;BME280;65104;52.994;6.552;2023-04-24T01:33:25;99622.63;;;9.44;100.00
76297;BME280;65104;52.994;6.552;2023-04-24T01:35:50;99624.38;;;9.48;100.00
76297;BME280;65104;52.994;6.552;2023-04-24T01:38:16;99623.47;;;9.43;100.00
76297;BME280;65104;52.994;6.552;2023-04-24T01:40:41;99624.38;;;9.48;100.00
76297;BME280;65104;52.994;6.552;2023-04-24T01:43:07;99624.34;;;9.45;100.00
76297;BME280;65104;52.994;6.552;2023-04-24T01:45:32;99615.81;;;9.47;100.00
76297;BME280;65104;52.994;6.552;2023-04-24T01:47:58;99616.66;;;9.46;100.00
76297;BME280;65104;52.994;6.552;2023-04-24T01:50:24;99613.22;;;9.43;100.00
76297;BME280;65104;52.994;6.552;2023-04-24T01:52:49;99620.09;;;9.47;100.00
76297;BME280;65104;52.994;6.552;2023-04-24T01:55:16;99626.06;;;9.46;100.00
76297;BME280;65104;52.994;6.552;2023-04-24T01:57:41;99618.38;;;9.47;100.00
76297;BME280;65104;52.994;6.552;2023-04-24T02:00:07;99622.66;;;9.51;100.00
76297;BME280;65104;52.994;6.552;2023-04-24T02:02:33;99621.81;;;9.52;100.00
76297;BME280;65104;52.994;6.552;2023-04-24T02:04:59;99621.81;;;9.48;100.00
76297;BME280;65104;52.994;6.552;2023-04-24T02:07:24;99619.22;;;9.51;100.00
76297;BME280;65104;52.994;6.552;2023-04-24T02:09:50;99621.78;;;9.51;100.00
76297;BME280;65104;52.994;6.552;2023-04-24T02:12:16;99619.22;;;9.51;100.00
76297;BME280;65104;52.994;6.552;2023-04-24T02:14:43;99619.25;;;9.55;100.00
76297;BME280;65104;52.994;6.552;2023-04-24T02:17:08;99620.09;;;9.53;100.00
76297;BME280;65104;52.994;6.552;2023-04-24T02:19:34;99626.97;;;9.57;100.00
76297;BME280;65104;52.994;6.552;2023-04-24T02:21:59;99623.53;;;9.55;100.00
76297;BME280;65104;52.994;6.552;2023-04-24T02:24:24;99631.19;;;9.52;100.00
76297;BME280;65104;52.994;6.552;2023-04-24T02:26:50;99620.09;;;9.54;100.00
76297;BME280;65104;52.994;6.552;2023-04-24T02:29:15;99624.38;;;9.54;100.00
76297;BME280;65104;52.994;6.552;2023-04-24T02:31:41;99619.25;;;9.55;100.00
76297;BME280;65104;52.994;6.552;2023-04-24T02:34:06;99625.22;;;9.51;100.00
76297;BME280;65104;52.994;6.552;2023-04-24T02:36:32;99625.22;;;9.47;100.00
76297;BME280;65104;52.994;6.552;2023-04-24T02:38:57;99619.25;;;9.48;100.00
76297;BME280;65104;52.994;6.552;2023-04-24T02:41:22;99621.81;;;9.48;100.00
76297;BME280;65104;52.994;6.552;2023-04-24T02:43:48;99617.50;;;9.42;100.00
76297;BME280;65104;52.994;6.552;2023-04-24T02:46:13;99627.75;;;9.42;100.00
76297;BME280;65104;52.994;6.552;2023-04-24T02:48:39;99620.91;;;9.41;100.00
76297;BME280;65104;52.994;6.552;2023-04-24T02:51:04;99626.88;;;9.41;100.00
76297;BME280;65104;52.994;6.552;2023-04-24T02:53:29;99619.19;;;9.37;100.00
76297;BME280;65104;52.994;6.552;2023-04-24T02:55:56;99619.16;;;9.34;100.00
76297;BME280;65104;52.994;6.552;2023-04-24T02:58:21;99622.56;;;9.28;100.00
76297;BME280;65104;52.994;6.552;2023-04-24T03:00:47;99614.91;;;9.30;100.00
76297;BME280;65104;52.994;6.552;2023-04-24T03:03:13;99623.41;;;9.26;100.00
76297;BME280;65104;52.994;6.552;2023-04-24T03:05:38;99628.50;;;9.23;100.00
76297;BME280;65104;52.994;6.552;2023-04-24T03:08:04;99626.84;;;9.29;100.00
76297;BME280;65104;52.994;6.552;2023-04-24T03:10:29;99628.53;;;9.24;100.00
76297;BME280;65104;52.994;6.552;2023-04-24T03:12:55;99635.34;;;9.22;100.00
76297;BME280;65104;52.994;6.552;2023-04-24T03:15:20;99629.34;;;9.22;100.00
76297;BME280;65104;52.994;6.552;2023-04-24T03:17:46;99630.22;;;9.22;100.00
76297;BME280;65104;52.994;6.552;2023-04-24T03:20:11;99636.16;;;9.17;100.00
76297;BME280;65104;52.994;6.552;2023-04-24T03:22:37;99635.34;;;9.19;100.00
76297;BME280;65104;52.994;6.552;2023-04-24T03:25:02;99624.22;;;9.16;100.00
76297;BME280;65104;52.994;6.552;2023-04-24T03:27:28;99639.59;;;9.17;100.00
76297;BME280;65104;52.994;6.552;2023-04-24T03:29:53;99635.28;;;9.10;100.00
76297;BME280;65104;52.994;6.552;2023-04-24T03:32:22;99634.44;;;9.14;100.00
76297;BME280;65104;52.994;6.552;2023-04-24T03:34:48;99625.03;;;9.13;100.00
76297;BME280;65104;52.994;6.552;2023-04-24T03:37:14;99631.88;;;9.08;100.00
76297;BME280;65104;52.994;6.552;2023-04-24T03:39:40;99630.16;;;9.13;100.00
76297;BME280;65104;52.994;6.552;2023-04-24T03:42:05;99626.75;;;9.14;100.00
76297;BME280;65104;52.994;6.552;2023-04-24T03:44:31;99631.03;;;9.15;100.00
76297;BME280;65104;52.994;6.552;2023-04-24T03:46:57;99629.31;;;9.08;100.00
76297;BME280;65104;52.994;6.552;2023-04-24T03:49:23;99633.56;;;9.06;100.00
76297;BME280;65104;52.994;6.552;2023-04-24T03:51:48;99636.09;;;9.06;100.00
76297;BME280;65104;52.994;6.552;2023-04-24T03:54:13;99636.09;;;9.00;100.00
76297;BME280;65104;52.994;6.552;2023-04-24T03:56:39;99636.94;;;8.99;100.00
76297;BME280;65104;52.994;6.552;2023-04-24T03:59:04;99639.47;;;8.96;100.00
76297;BME280;65104;52.994;6.552;2023-04-24T04:01:29;99630.94;;;8.92;100.00
76297;BME280;65104;52.994;6.552;2023-04-24T04:03:55;99633.50;;;8.94;100.00
76297;BME280;65104;52.994;6.552;2023-04-24T04:06:21;99644.59;;;8.96;100.00
76297;BME280;65104;52.994;6.552;2023-04-24T04:08:47;99642.88;;;8.96;100.00
76297;BME280;65104;52.994;6.552;2023-04-24T04:11:12;99636.91;;;8.94;100.00
76297;BME280;65104;52.994;6.552;2023-04-24T04:13:38;99637.75;;;8.96;100.00
76297;BME280;65104;52.994;6.552;2023-04-24T04:16:03;99642.88;;;8.92;100.00
76297;BME280;65104;52.994;6.552;2023-04-24T04:18:29;99650.56;;;8.98;100.00
76297;BME280;65104;52.994;6.552;2023-04-24T04:20:54;99649.72;;;8.97;100.00
76297;BME280;65104;52.994;6.552;2023-04-24T04:23:20;99651.41;;;8.95;100.00
76297;BME280;65104;52.994;6.552;2023-04-24T04:25:45;99651.41;;;8.94;100.00
76297;BME280;65104;52.994;6.552;2023-04-24T04:28:12;99649.72;;;8.97;100.00
76297;BME280;65104;52.994;6.552;2023-04-24T04:30:37;99652.28;;;8.94;100.00
76297;BME280;65104;52.994;6.552;2023-04-24T04:33:03;99643.75;;;8.98;100.00
76297;BME280;65104;52.994;6.552;2023-04-24T04:35:28;99654.00;;;8.98;100.00
76297;BME280;65104;52.994;6.552;2023-04-24T04:37:54;99658.28;;;9.01;100.00
76297;BME280;65104;52.994;6.552;2023-04-24T04:40:19;99664.22;;;8.98;100.00
76297;BME280;65104;52.994;6.552;2023-04-24T04:42:45;99665.97;;;9.04;100.00
76297;BME280;65104;52.994;6.552;2023-04-24T04:45:11;99665.91;;;8.95;100.00
76297;BME280;65104;52.994;6.552;2023-04-24T04:47:37;99671.91;;;8.94;100.00
76297;BME280;65104;52.994;6.552;2023-04-24T04:50:02;99678.72;;;8.92;100.00
76297;BME280;65104;52.994;6.552;2023-04-24T04:52:29;99681.28;;;8.92;100.00
76297;BME280;65104;52.994;6.552;2023-04-24T04:54:55;99680.41;;;8.91;100.00
76297;BME280;65104;52.994;6.552;2023-04-24T04:57:20;99684.63;;;8.88;100.00
76297;BME280;65104;52.994;6.552;2023-04-24T04:59:46;99679.50;;;8.82;100.00
76297;BME280;65104;52.994;6.552;2023-04-24T05:02:11;99689.69;;;8.76;100.00
76297;BME280;65104;52.994;6.552;2023-04-24T05:04:37;99687.97;;;8.78;100.00
76297;BME280;65104;52.994;6.552;2023-04-24T05:07:03;99692.22;;;8.74;100.00
76297;BME280;65104;52.994;6.552;2023-04-24T05:09:29;99698.19;;;8.73;100.00
76297;BME280;65104;52.994;6.552;2023-04-24T05:11:55;99698.13;;;8.69;100.00
76297;BME280;65104;52.994;6.552;2023-04-24T05:14:21;99703.22;;;8.62;100.00
76297;BME280;65104;52.994;6.552;2023-04-24T05:16:47;99701.56;;;8.66;100.00
76297;BME280;65104;52.994;6.552;2023-04-24T05:19:12;99709.25;;;8.71;100.00
76297;BME280;65104;52.994;6.552;2023-04-24T05:21:39;99707.56;;;8.71;100.00
76297;BME280;65104;52.994;6.552;2023-04-24T05:24:05;99715.25;;;8.73;100.00
76297;BME280;65104;52.994;6.552;2023-04-24T05:26:31;99710.13;;;8.73;100.00
76297;BME280;65104;52.994;6.552;2023-04-24T05:28:56;99719.56;;;8.80;100.00
76297;BME280;65104;52.994;6.552;2023-04-24T05:31:22;99717.88;;;8.82;100.00
76297;BME280;65104;52.994;6.552;2023-04-24T05:33:47;99727.25;;;8.81;100.00
76297;BME280;65104;52.994;6.552;2023-04-24T05:36:13;99728.94;;;8.78;100.00
76297;BME280;65104;52.994;6.552;2023-04-24T05:38:38;99736.63;;;8.79;100.00
76297;BME280;65104;52.994;6.552;2023-04-24T05:41:03;99733.25;;;8.83;100.00
76297;BME280;65104;52.994;6.552;2023-04-24T05:43:29;99739.28;;;8.91;100.00
76297;BME280;65104;52.994;6.552;2023-04-24T05:45:54;99735.06;;;8.93;100.00
76297;BME280;65104;52.994;6.552;2023-04-24T05:48:20;99747.84;;;8.95;100.00
76297;BME280;65104;52.994;6.552;2023-04-24T05:50:47;99744.44;;;8.93;100.00
76297;BME280;65104;52.994;6.552;2023-04-24T05:53:13;99741.03;;;8.94;100.00
76297;BME280;65104;52.994;6.552;2023-04-24T05:55:38;99749.63;;;9.02;100.00
76297;BME280;65104;52.994;6.552;2023-04-24T05:58:04;99747.97;;;9.13;100.00
76297;BME280;65104;52.994;6.552;2023-04-24T06:00:30;99752.31;;;9.20;100.00
76297;BME280;65104;52.994;6.552;2023-04-24T06:02:55;99751.53;;;9.30;100.00
76297;BME280;65104;52.994;6.552;2023-04-24T06:05:21;99758.34;;;9.28;100.00
76297;BME280;65104;52.994;6.552;2023-04-24T06:07:47;99752.34;;;9.26;100.00
76297;BME280;65104;52.994;6.552;2023-04-24T06:10:13;99754.97;;;9.35;100.00
76297;BME280;65104;52.994;6.552;2023-04-24T06:12:39;99762.59;;;9.31;100.00
76297;BME280;65104;52.994;6.552;2023-04-24T06:15:04;99763.56;;;9.44;100.00
76297;BME280;65104;52.994;6.552;2023-04-24T06:17:30;99772.06;;;9.39;100.00
76297;BME280;65104;52.994;6.552;2023-04-24T06:19:56;99773.78;;;9.37;100.00
76297;BME280;65104;52.994;6.552;2023-04-24T06:22:21;99778.91;;;9.40;100.00
76297;BME280;65104;52.994;6.552;2023-04-24T06:24:46;99786.59;;;9.39;100.00
76297;BME280;65104;52.994;6.552;2023-04-24T06:27:13;99788.28;;;9.35;100.00
76297;BME280;65104;52.994;6.552;2023-04-24T06:29:38;99792.56;;;9.41;100.00
76297;BME280;65104;52.994;6.552;2023-04-24T06:32:04;99795.13;;;9.39;100.00
76297;BME280;65104;52.994;6.552;2023-04-24T06:34:29;99791.66;;;9.30;100.00
76297;BME280;65104;52.994;6.552;2023-04-24T06:36:56;99794.19;;;9.28;100.00
76297;BME280;65104;52.994;6.552;2023-04-24T06:39:21;99793.38;;;9.34;100.00
76297;BME280;65104;52.994;6.552;2023-04-24T06:41:46;99801.97;;;9.37;100.00
76297;BME280;65104;52.994;6.552;2023-04-24T06:44:12;99804.50;;;9.37;100.00
76297;BME280;65104;52.994;6.552;2023-04-24T06:46:39;99809.59;;;9.34;100.00
76297;BME280;65104;52.994;6.552;2023-04-24T06:49:05;99810.50;;;9.43;100.00
76297;BME280;65104;52.994;6.552;2023-04-24T06:51:31;99817.38;;;9.44;100.00
76297;BME280;65104;52.994;6.552;2023-04-24T06:53:58;99812.19;;;9.40;100.00
76297;BME280;65104;52.994;6.552;2023-04-24T06:56:23;99814.75;;;9.37;100.00
76297;BME280;65104;52.994;6.552;2023-04-24T06:58:49;99823.28;;;9.36;100.00
76297;BME280;65104;52.994;6.552;2023-04-24T07:01:14;99828.41;;;9.39;100.00
76297;BME280;65104;52.994;6.552;2023-04-24T07:03:40;99824.19;;;9.45;100.00
76297;BME280;65104;52.994;6.552;2023-04-24T07:06:05;99819.94;;;9.47;100.00
76297;BME280;65104;52.994;6.552;2023-04-24T07:08:31;99825.00;;;9.37;100.00
76297;BME280;65104;52.994;6.552;2023-04-24T07:10:58;99829.34;;;9.51;100.00
76297;BME280;65104;52.994;6.552;2023-04-24T07:13:23;99824.22;;;9.49;100.00
76297;BME280;65104;52.994;6.552;2023-04-24T07:15:49;99836.19;;;9.47;100.00
76297;BME280;65104;52.994;6.552;2023-04-24T07:18:16;99832.75;;;9.50;100.00
76297;BME280;65104;52.994;6.552;2023-04-24T07:20:41;99845.56;;;9.47;100.00
76297;BME280;65104;52.994;6.552;2023-04-24T07:23:07;99847.22;;;9.41;100.00
76297;BME280;65104;52.994;6.552;2023-04-24T07:25:32;99851.53;;;9.44;100.00
76297;BME280;65104;52.994;6.552;2023-04-24T07:27:58;99853.25;;;9.50;100.00
76297;BME280;65104;52.994;6.552;2023-04-24T07:30:23;99855.00;;;9.48;100.00
76297;BME280;65104;52.994;6.552;2023-04-24T07:32:49;99854.94;;;9.45;100.00
76297;BME280;65104;52.994;6.552;2023-04-24T07:35:14;99851.50;;;9.41;100.00
76297;BME280;65104;52.994;6.552;2023-04-24T07:37:40;99867.72;;;9.37;100.00
76297;BME280;65104;52.994;6.552;2023-04-24T07:40:06;99870.22;;;9.29;100.00
76297;BME280;65104;52.994;6.552;2023-04-24T07:42:31;99883.03;;;9.29;100.00
76297;BME280;65104;52.994;6.552;2023-04-24T07:44:59;99882.88;;;9.16;100.00
76297;BME280;65104;52.994;6.552;2023-04-24T07:47:25;99898.22;;;9.11;100.00
76297;BME280;65104;52.994;6.552;2023-04-24T07:49:50;99894.78;;;9.09;100.00
76297;BME280;65104;52.994;6.552;2023-04-24T07:52:16;99905.91;;;9.14;100.00
76297;BME280;65104;52.994;6.552;2023-04-24T07:54:41;99912.78;;;9.17;100.00
76297;BME280;65104;52.994;6.552;2023-04-24T07:57:08;99913.66;;;9.19;100.00
76297;BME280;65104;52.994;6.552;2023-04-24T07:59:33;99919.59;;;9.15;100.00
76297;BME280;65104;52.994;6.552;2023-04-24T08:01:59;99933.25;;;9.12;100.00
76297;BME280;65104;52.994;6.552;2023-04-24T08:04:26;99925.56;;;9.15;100.00
76297;BME280;65104;52.994;6.552;2023-04-24T08:06:51;99925.56;;;9.12;100.00
76297;BME280;65104;52.994;6.552;2023-04-24T08:09:17;99927.28;;;9.16;100.00
76297;BME280;65104;52.994;6.552;2023-04-24T08:11:43;99932.47;;;9.21;100.00
76297;BME280;65104;52.994;6.552;2023-04-24T08:14:08;99950.31;;;9.12;100.00
76297;BME280;65104;52.994;6.552;2023-04-24T08:16:34;99954.47;;;9.05;100.00
76297;BME280;65104;52.994;6.552;2023-04-24T08:19:00;99964.75;;;9.03;100.00
76297;BME280;65104;52.994;6.552;2023-04-24T08:21:25;99963.75;;;8.95;100.00
76297;BME280;65104;52.994;6.552;2023-04-24T08:23:52;99982.75;;;9.14;100.00
76297;BME280;65104;52.994;6.552;2023-04-24T08:26:17;99976.81;;;9.17;100.00
76297;BME280;65104;52.994;6.552;2023-04-24T08:28:43;99984.38;;;9.06;100.00
76297;BME280;65104;52.994;6.552;2023-04-24T08:31:08;99991.81;;;8.83;100.00
76297;BME280;65104;52.994;6.552;2023-04-24T08:33:33;99991.78;;;8.82;100.00
76297;BME280;65104;52.994;6.552;2023-04-24T08:36:04;99996.84;;;8.79;100.00
76297;BME280;65104;52.994;6.552;2023-04-24T08:38:30;100003.66;;;8.78;100.00
76297;BME280;65104;52.994;6.552;2023-04-24T08:40:58;100011.34;;;8.75;100.00
76297;BME280;65104;52.994;6.552;2023-04-24T08:43:24;100009.59;;;8.73;100.00
76297;BME280;65104;52.994;6.552;2023-04-24T08:45:52;100017.19;;;8.68;100.00
76297;BME280;65104;52.994;6.552;2023-04-24T08:48:18;100022.34;;;8.70;100.00
76297;BME280;65104;52.994;6.552;2023-04-24T08:50:44;100018.09;;;8.72;100.00
76297;BME280;65104;52.994;6.552;2023-04-24T08:53:10;100029.19;;;8.72;100.00
76297;BME280;65104;52.994;6.552;2023-04-24T08:55:37;100035.88;;;8.61;100.00
76297;BME280;65104;52.994;6.552;2023-04-24T08:58:03;100042.53;;;8.48;100.00
76297;BME280;65104;52.994;6.552;2023-04-24T09:00:28;100047.53;;;8.42;100.00
76297;BME280;65104;52.994;6.552;2023-04-24T09:02:55;100049.09;;;8.33;100.00
76297;BME280;65104;52.994;6.552;2023-04-24T09:05:21;100054.22;;;8.33;100.00
76297;BME280;65104;52.994;6.552;2023-04-24T09:07:55;100060.31;;;8.42;100.00
76297;BME280;65104;52.994;6.552;2023-04-24T09:10:22;100061.28;;;8.47;100.00
76297;BME280;65104;52.994;6.552;2023-04-24T09:12:50;100069.78;;;8.46;100.00
76297;BME280;65104;52.994;6.552;2023-04-24T09:15:15;100070.56;;;8.42;100.00
76297;BME280;65104;52.994;6.552;2023-04-24T09:17:41;100069.78;;;8.46;100.00
76297;BME280;65104;52.994;6.552;2023-04-24T09:20:06;100073.25;;;8.51;100.00
76297;BME280;65104;52.994;6.552;2023-04-24T09:22:32;100076.47;;;8.38;100.00
76297;BME280;65104;52.994;6.552;2023-04-24T09:25:06;100085.91;;;8.41;100.00
76297;BME280;65104;52.994;6.552;2023-04-24T09:27:33;100089.34;;;8.43;100.00
76297;BME280;65104;52.994;6.552;2023-04-24T09:29:59;100094.66;;;8.55;100.00
76297;BME280;65104;52.994;6.552;2023-04-24T09:32:25;100094.81;;;8.65;100.00
76297;BME280;65104;52.994;6.552;2023-04-24T09:35:11;100097.41;;;8.70;100.00
76297;BME280;65104;52.994;6.552;2023-04-24T09:37:45;100092.25;;;8.65;100.00
76297;BME280;65104;52.994;6.552;2023-04-24T09:40:18;100097.34;;;8.64;100.00
76297;BME280;65104;52.994;6.552;2023-04-24T09:42:45;100112.66;;;8.62;100.00
76297;BME280;65104;52.994;6.552;2023-04-24T09:45:11;100115.94;;;8.54;100.00
76297;BME280;65104;52.994;6.552;2023-04-24T09:47:40;100116.66;;;8.45;100.00
76297;BME280;65104;52.994;6.552;2023-04-24T09:50:10;100123.44;;;8.40;100.00
76297;BME280;65104;52.994;6.552;2023-04-24T09:52:39;100129.53;;;8.48;100.00
76297;BME280;65104;52.994;6.552;2023-04-24T09:55:11;100139.78;;;8.50;100.00
76297;BME280;65104;52.994;6.552;2023-04-24T09:57:49;100129.59;;;8.54;100.00
76297;BME280;65104;52.994;6.552;2023-04-24T10:00:23;100138.06;;;8.50;100.00
76297;BME280;65104;52.994;6.552;2023-04-24T10:03:02;100144.09;;;8.54;100.00
76297;BME280;65104;52.994;6.552;2023-04-24T10:05:35;100151.13;;;8.65;100.00
76297;BME280;65104;52.994;6.552;2023-04-24T10:08:11;100155.41;;;8.67;100.00
76297;BME280;65104;52.994;6.552;2023-04-24T10:10:46;100162.31;;;8.74;100.00
76297;BME280;65104;52.994;6.552;2023-04-24T10:13:13;100160.75;;;8.83;100.00
76297;BME280;65104;52.994;6.552;2023-04-24T10:15:39;100169.38;;;8.90;100.00
76297;BME280;65104;52.994;6.552;2023-04-24T10:18:06;100166.91;;;8.96;100.00
76297;BME280;65104;52.994;6.552;2023-04-24T10:20:33;100162.81;;;9.07;100.00
76297;BME280;65104;52.994;6.552;2023-04-24T10:22:59;100167.16;;;9.11;100.00
76297;BME280;65104;52.994;6.552;2023-04-24T10:25:27;100174.13;;;9.24;99.16
76297;BME280;65104;52.994;6.552;2023-04-24T10:27:54;100171.75;;;9.36;98.59
76297;BME280;65104;52.994;6.552;2023-04-24T10:30:25;100181.09;;;9.33;99.41
76297;BME280;65104;52.994;6.552;2023-04-24T10:32:51;100181.06;;;9.30;100.00
76297;BME280;65104;52.994;6.552;2023-04-24T10:35:17;100196.19;;;9.13;96.90
76297;BME280;65104;52.994;6.552;2023-04-24T10:37:49;100194.44;;;9.11;97.77
76297;BME280;65104;52.994;6.552;2023-04-24T10:40:29;100202.75;;;8.96;93.63
76297;BME280;65104;52.994;6.552;2023-04-24T10:42:56;100203.56;;;8.92;93.16
76297;BME280;65104;52.994;6.552;2023-04-24T10:45:23;100220.56;;;8.88;93.59
76297;BME280;65104;52.994;6.552;2023-04-24T10:48:00;100212.06;;;8.91;93.27
76297;BME280;65104;52.994;6.552;2023-04-24T10:50:42;100223.19;;;8.91;91.86
76297;BME280;65104;52.994;6.552;2023-04-24T10:53:15;100219.03;;;8.99;91.49
76297;BME280;65104;52.994;6.552;2023-04-24T10:55:51;100228.63;;;9.11;91.60
76297;BME280;65104;52.994;6.552;2023-04-24T10:58:21;100244.69;;;9.01;90.65
76297;BME280;65104;52.994;6.552;2023-04-24T11:00:58;100239.56;;;9.01;89.53
76297;BME280;65104;52.994;6.552;2023-04-24T11:03:29;100243.28;;;9.21;89.91
76297;BME280;65104;52.994;6.552;2023-04-24T11:06:06;100246.88;;;9.35;89.85
76297;BME280;65104;52.994;6.552;2023-04-24T11:08:32;100252.13;;;9.45;92.25
76297;BME280;65104;52.994;6.552;2023-04-24T11:11:15;100249.59;;;9.45;91.85
76297;BME280;65104;52.994;6.552;2023-04-24T11:21:31;100261.03;;;9.11;91.61
76297;BME280;65104;52.994;6.552;2023-04-24T11:23:57;100277.88;;;8.96;88.88
76297;BME280;65104;52.994;6.552;2023-04-24T11:26:23;100274.63;;;9.07;88.69
76297;BME280;65104;52.994;6.552;2023-04-24T11:29:06;100283.34;;;9.18;90.99
76297;BME280;65104;52.994;6.552;2023-04-24T11:31:36;100263.81;;;9.24;90.70
76297;BME280;65104;52.994;6.552;2023-04-24T11:34:09;100280.84;;;9.22;88.71
76297;BME280;65104;52.994;6.552;2023-04-24T11:36:35;100282.09;;;9.50;88.32
76297;BME280;65104;52.994;6.552;2023-04-24T11:39:01;100283.13;;;9.61;88.09
76297;BME280;65104;52.994;6.552;2023-04-24T11:41:27;100280.00;;;9.84;88.03
76297;BME280;65104;52.994;6.552;2023-04-24T11:43:54;100279.28;;;9.92;84.16
76297;BME280;65104;52.994;6.552;2023-04-24T11:46:21;100289.41;;;9.85;85.14
76297;BME280;65104;52.994;6.552;2023-04-24T11:48:46;100284.16;;;9.75;85.30
76297;BME280;65104;52.994;6.552;2023-04-24T11:51:13;100298.31;;;9.48;84.09
76297;BME280;65104;52.994;6.552;2023-04-24T11:53:38;100293.88;;;9.36;84.57
76297;BME280;65104;52.994;6.552;2023-04-24T11:56:04;100308.09;;;9.17;83.59
76297;BME280;65104;52.994;6.552;2023-04-24T11:58:35;100316.56;;;9.13;83.89
76297;BME280;65104;52.994;6.552;2023-04-24T12:01:01;100315.44;;;8.97;83.62
76297;BME280;65104;52.994;6.552;2023-04-24T12:03:26;100317.09;;;8.92;84.93
76297;BME280;65104;52.994;6.552;2023-04-24T12:05:52;100325.38;;;8.79;83.85
76297;BME280;65104;52.994;6.552;2023-04-24T12:08:27;100333.00;;;8.75;84.22
76297;BME280;65104;52.994;6.552;2023-04-24T12:10:53;100322.88;;;8.82;85.52
76297;BME280;65104;52.994;6.552;2023-04-24T12:13:19;100332.88;;;8.69;84.57
76297;BME280;65104;52.994;6.552;2023-04-24T12:15:44;100339.84;;;8.77;84.61
76297;BME280;65104;52.994;6.552;2023-04-24T12:18:12;100341.88;;;8.93;84.55
76297;BME280;65104;52.994;6.552;2023-04-24T12:20:37;100349.00;;;9.11;85.28
76297;BME280;65104;52.994;6.552;2023-04-24T12:23:03;100346.59;;;9.20;84.74
76297;BME280;65104;52.994;6.552;2023-04-24T12:25:30;100345.06;;;9.33;82.28
76297;BME280;65104;52.994;6.552;2023-04-24T12:30:32;100332.75;;;9.65;82.16
76297;BME280;65104;52.994;6.552;2023-04-24T12:32:59;100339.34;;;9.51;80.93
76297;BME280;65104;52.994;6.552;2023-04-24T12:35:27;100348.47;;;9.30;82.56
76297;BME280;65104;52.994;6.552;2023-04-24T12:37:53;100350.31;;;9.42;81.64
76297;BME280;65104;52.994;6.552;2023-04-24T12:40:20;100350.16;;;9.30;82.12
76297;BME280;65104;52.994;6.552;2023-04-24T12:42:50;100348.41;;;9.27;83.38
76297;BME280;65104;52.994;6.552;2023-04-24T12:45:17;100358.75;;;9.35;81.25
76297;BME280;65104;52.994;6.552;2023-04-24T12:47:44;100350.31;;;9.42;81.96
76297;BME280;65104;52.994;6.552;2023-04-24T12:50:11;100355.31;;;9.33;82.00
76297;BME280;65104;52.994;6.552;2023-04-24T12:52:37;100358.69;;;9.29;82.88
76297;BME280;65104;52.994;6.552;2023-04-24T12:55:03;100362.06;;;9.28;83.52
76297;BME280;65104;52.994;6.552;2023-04-24T12:57:30;100374.84;;;9.26;84.90
76297;BME280;65104;52.994;6.552;2023-04-24T12:59:58;100371.25;;;9.15;84.93
76297;BME280;65104;52.994;6.552;2023-04-24T13:02:24;100369.38;;;9.07;83.57
76297;BME280;65104;52.994;6.552;2023-04-24T13:04:50;100375.31;;;9.02;83.68
76297;BME280;65104;52.994;6.552;2023-04-24T13:07:16;100378.88;;;9.11;84.53